Time,TemperatureF,DewpointF,PressureIn,WindDirection,WindDirectionDegrees,WindSpeedMPH,WindSpeedGustMPH,Humidity,HourlyPrecipIn,Conditions,Clouds,dailyrainin,SoftwareType,DateUTC
2013-08-11 00:12:00,61.3,58.0,30.12,NE,42,1.0,1.0,90,0.00,,,0.00,weatherlink.com 1.10,2013-08-11 04:12:00,
2013-08-11 00:27:00,61.4,58.0,30.12,SE,124,0.0,2.0,89,0.00,,,0.00,weatherlink.com 1.10,2013-08-11 04:27:00,
2013-08-11 00:42:00,61.6,58.0,30.12,ESE,120,0.0,1.0,88,0.00,,,0.00,weatherlink.com 1.10,2013-08-11 04:42:00,
2013-08-11 00:57:00,61.5,58.0,30.12,ESE,119,0.0,0.0,87,0.00,,,0.00,weatherlink.com 1.10,2013-08-11 04:57:00,
2013-08-11 01:12:00,61.3,57.0,30.12,ESE,120,0.0,0.0,86,0.00,,,0.00,weatherlink.com 1.10,2013-08-11 05:12:00,
2013-08-11 01:27:00,60.8,57.0,30.12,ESE,120,0.0,0.0,86,0.00,,,0.00,weatherlink.com 1.10,2013-08-11 05:27:00,
2013-08-11 01:42:00,60.3,56.0,30.11,ESE,120,0.0,0.0,86,0.00,,,0.00,weatherlink.com 1.10,2013-08-11 05:42:00,
2013-08-11 01:57:00,59.8,56.0,30.11,ESE,119,0.0,0.0,87,0.00,,,0.00,weatherlink.com 1.10,2013-08-11 05:57:00,
2013-08-11 02:12:00,59.3,56.0,30.11,ESE,120,0.0,0.0,88,0.00,,,0.00,weatherlink.com 1.10,2013-08-11 06:12:00,
2013-08-11 02:27:00,58.8,55.0,30.12,ESE,119,0.0,0.0,88,0.00,,,0.00,weatherlink.com 1.10,2013-08-11 06:27:00,
2013-08-11 02:42:00,58.4,55.0,30.12,ESE,120,0.0,0.0,89,0.00,,,0.00,weatherlink.com 1.10,2013-08-11 06:42:00,
2013-08-11 02:57:00,58.0,55.0,30.12,ESE,120,0.0,0.0,89,0.00,,,0.00,weatherlink.com 1.10,2013-08-11 06:57:00,
2013-08-11 03:12:00,57.6,54.0,30.12,ESE,119,0.0,0.0,89,0.00,,,0.00,weatherlink.com 1.10,2013-08-11 07:12:00,
2013-08-11 03:27:00,57.2,54.0,30.12,ESE,119,0.0,0.0,90,0.00,,,0.00,weatherlink.com 1.10,2013-08-11 07:27:00,
2013-08-11 03:42:00,56.8,54.0,30.12,ESE,120,0.0,0.0,90,0.00,,,0.00,weatherlink.com 1.10,2013-08-11 07:42:00,
2013-08-11 03:57:00,56.4,54.0,30.12,ESE,119,0.0,0.0,90,0.00,,,0.00,weatherlink.com 1.10,2013-08-11 07:57:00,
2013-08-11 04:12:00,56.2,54.0,30.12,ESE,120,0.0,0.0,91,0.00,,,0.00,weatherlink.com 1.10,2013-08-11 08:12:00,
2013-08-11 04:27:00,56.0,54.0,30.12,ESE,120,0.0,0.0,91,0.00,,,0.00,weatherlink.com 1.10,2013-08-11 08:27:00,
2013-08-11 04:42:00,55.8,53.0,30.12,ESE,120,0.0,0.0,91,0.00,,,0.00,weatherlink.com 1.10,2013-08-11 08:42:00,
2013-08-11 04:57:00,56.0,54.0,30.12,ESE,119,0.0,0.0,93,0.00,,,0.00,weatherlink.com 1.10,2013-08-11 08:57:00,
2013-08-11 05:27:00,57.0,56.0,30.11,ESE,120,0.0,0.0,95,0.00,,,0.00,weatherlink.com 1.10,2013-08-11 09:27:00,
2013-08-11 05:57:00,57.9,57.0,30.12,ESE,119,0.0,0.0,96,0.00,,,0.00,weatherlink.com 1.10,2013-08-11 09:57:00,
2013-08-11 06:12:00,58.3,57.0,30.12,ESE,120,0.0,0.0,96,0.00,,,0.00,weatherlink.com 1.10,2013-08-11 10:12:00,
2013-08-11 06:42:00,59.0,58.0,30.12,ESE,120,0.0,1.0,96,0.00,,,0.00,weatherlink.com 1.10,2013-08-11 10:42:00,
2013-08-11 06:57:00,59.2,58.0,30.12,NNE,25,0.0,0.0,96,0.00,,,0.00,weatherlink.com 1.10,2013-08-11 10:57:00,
2013-08-11 07:12:00,59.4,58.0,30.13,NNE,25,0.0,0.0,96,0.00,,,0.00,weatherlink.com 1.10,2013-08-11 11:12:00,
2013-08-11 07:57:00,59.7,59.0,30.12,NNE,25,0.0,0.0,96,0.00,,,0.00,weatherlink.com 1.10,2013-08-11 11:57:00,
2013-08-11 08:12:00,60.0,59.0,30.12,NNE,25,0.0,0.0,96,0.00,,,0.00,weatherlink.com 1.10,2013-08-11 12:12:00,
2013-08-11 08:27:00,62.0,60.0,30.11,NW,319,0.0,1.0,93,0.00,,,0.00,weatherlink.com 1.10,2013-08-11 12:27:00,
2013-08-11 08:42:00,64.5,61.0,30.12,SSE,167,1.0,1.0,89,0.00,,,0.00,weatherlink.com 1.10,2013-08-11 12:42:00,
2013-08-11 08:58:00,66.6,62.0,30.12,South,181,0.0,2.0,85,0.00,,,0.00,weatherlink.com 1.10,2013-08-11 12:58:00,
2013-08-11 09:13:00,66.9,62.0,30.12,ESE,117,0.0,2.0,83,0.00,,,0.00,weatherlink.com 1.10,2013-08-11 13:13:00,
2013-08-11 09:28:00,68.7,63.0,30.12,South,178,0.0,3.0,83,0.00,,,0.00,weatherlink.com 1.10,2013-08-11 13:28:00,
2013-08-11 09:43:00,70.1,62.0,30.12,WSW,238,1.0,4.0,76,0.00,,,0.00,weatherlink.com 1.10,2013-08-11 13:43:00,
2013-08-11 09:58:00,71.9,64.0,30.11,West,269,3.0,3.0,75,0.00,,,0.00,weatherlink.com 1.10,2013-08-11 13:58:00,
2013-08-11 10:13:00,71.3,62.0,30.12,SE,140,2.0,4.0,72,0.00,,,0.00,weatherlink.com 1.10,2013-08-11 14:13:00,
2013-08-11 10:28:00,71.7,61.0,30.12,NNE,29,1.0,3.0,70,0.00,,,0.00,weatherlink.com 1.10,2013-08-11 14:28:00,
2013-08-11 10:43:00,72.6,63.0,30.11,South,178,1.0,4.0,71,0.00,,,0.00,weatherlink.com 1.10,2013-08-11 14:43:00,
2013-08-11 10:58:00,72.8,62.0,30.11,West,273,1.0,4.0,70,0.00,,,0.00,weatherlink.com 1.10,2013-08-11 14:58:00,
2013-08-11 11:13:00,73.7,62.0,30.11,ESE,118,2.0,3.0,67,0.00,,,0.00,weatherlink.com 1.10,2013-08-11 15:13:00,
2013-08-11 11:43:00,73.7,64.0,30.11,West,278,1.0,5.0,71,0.00,,,0.00,weatherlink.com 1.10,2013-08-11 15:43:00,
2013-08-11 11:58:00,74.5,62.0,30.10,North,355,2.0,6.0,65,0.00,,,0.00,weatherlink.com 1.10,2013-08-11 15:58:00,
2013-08-11 12:13:00,75.3,62.0,30.11,SE,142,1.0,4.0,63,0.00,,,0.00,weatherlink.com 1.10,2013-08-11 16:13:00,
2013-08-11 12:28:00,74.6,62.0,30.11,SSW,197,2.0,7.0,65,0.00,,,0.00,weatherlink.com 1.10,2013-08-11 16:28:00,
2013-08-11 12:43:00,74.9,62.0,30.10,ESE,103,1.0,3.0,64,0.00,,,0.00,weatherlink.com 1.10,2013-08-11 16:43:00,
2013-08-11 12:58:00,76.3,62.0,30.09,WNW,293,1.0,5.0,61,0.00,,,0.00,weatherlink.com 1.10,2013-08-11 16:58:00,
2013-08-11 13:13:00,78.4,62.0,30.09,West,277,1.0,6.0,58,0.00,,,0.00,weatherlink.com 1.10,2013-08-11 17:13:00,
2013-08-11 13:43:00,76.0,61.0,30.09,NNW,327,1.0,4.0,60,0.00,,,0.00,weatherlink.com 1.10,2013-08-11 17:43:00,
2013-08-11 13:58:00,76.4,61.0,30.08,NNW,346,1.0,6.0,59,0.00,,,0.00,weatherlink.com 1.10,2013-08-11 17:58:00,
2013-08-11 14:13:00,76.2,60.0,30.09,North,355,1.0,6.0,58,0.00,,,0.00,weatherlink.com 1.10,2013-08-11 18:13:00,
2013-08-11 14:28:00,76.9,60.0,30.09,SW,217,2.0,4.0,56,0.00,,,0.00,weatherlink.com 1.10,2013-08-11 18:28:00,
2013-08-11 14:43:00,78.2,60.0,30.08,SSW,192,1.0,3.0,54,0.00,,,0.00,weatherlink.com 1.10,2013-08-11 18:43:00,
2013-08-11 14:59:00,78.7,61.0,30.08,NNE,12,3.0,6.0,55,0.00,,,0.00,weatherlink.com 1.10,2013-08-11 18:59:00,
2013-08-11 15:13:00,77.3,61.0,30.08,SSW,196,1.0,6.0,57,0.00,,,0.00,weatherlink.com 1.10,2013-08-11 19:13:00,
2013-08-11 15:28:00,79.6,59.0,30.07,West,265,1.0,7.0,50,0.00,,,0.00,weatherlink.com 1.10,2013-08-11 19:28:00,
2013-08-11 15:43:00,77.7,61.0,30.07,NNE,15,2.0,7.0,57,0.00,,,0.00,weatherlink.com 1.10,2013-08-11 19:43:00,
2013-08-11 16:28:00,80.2,59.0,30.07,WSW,258,3.0,7.0,48,0.00,,,0.00,weatherlink.com 1.10,2013-08-11 20:28:00,
2013-08-11 16:43:00,79.4,61.0,30.06,NE,51,0.0,6.0,53,0.00,,,0.00,weatherlink.com 1.10,2013-08-11 20:43:00,
2013-08-11 16:58:00,77.5,59.0,30.06,SW,236,2.0,7.0,54,0.00,,,0.00,weatherlink.com 1.10,2013-08-11 20:58:00,
2013-08-11 17:13:00,76.6,60.0,30.05,North,355,1.0,6.0,57,0.00,,,0.00,weatherlink.com 1.10,2013-08-11 21:13:00,
2013-08-11 17:28:00,76.8,61.0,30.05,North,355,2.0,5.0,59,0.00,,,0.00,weatherlink.com 1.10,2013-08-11 21:28:00,
2013-08-11 17:43:00,76.0,60.0,30.05,North,5,2.0,6.0,57,0.00,,,0.00,weatherlink.com 1.10,2013-08-11 21:43:00,
2013-08-11 18:29:00,75.5,60.0,30.04,North,355,0.0,5.0,59,0.00,,,0.00,weatherlink.com 1.10,2013-08-11 22:29:00,
2013-08-11 18:44:00,74.5,59.0,30.04,NNE,24,1.0,5.0,59,0.00,,,0.00,weatherlink.com 1.10,2013-08-11 22:44:00,
2013-08-11 18:59:00,74.1,61.0,30.04,North,355,0.0,3.0,63,0.00,,,0.00,weatherlink.com 1.10,2013-08-11 22:59:00,
2013-08-11 19:14:00,73.8,60.0,30.04,NNW,335,0.0,2.0,63,0.00,,,0.00,weatherlink.com 1.10,2013-08-11 23:14:00,
2013-08-11 19:44:00,74.2,61.0,30.03,NNW,341,0.0,0.0,63,0.00,,,0.00,weatherlink.com 1.10,2013-08-11 23:44:00,
2013-08-11 20:14:00,73.9,61.0,30.03,NNW,341,0.0,0.0,65,0.00,,,0.00,weatherlink.com 1.10,2013-08-12 00:14:00,
2013-08-11 20:29:00,73.3,61.0,30.04,NNW,341,0.0,0.0,66,0.00,,,0.00,weatherlink.com 1.10,2013-08-12 00:29:00,
2013-08-11 20:44:00,72.6,61.0,30.04,NNW,341,0.0,0.0,66,0.00,,,0.00,weatherlink.com 1.10,2013-08-12 00:44:00,
2013-08-11 20:59:00,71.6,61.0,30.05,NNW,341,0.0,0.0,70,0.00,,,0.00,weatherlink.com 1.10,2013-08-12 00:59:00,
2013-08-11 21:29:00,70.3,62.0,30.05,NNW,341,0.0,0.0,75,0.00,,,0.00,weatherlink.com 1.10,2013-08-12 01:29:00,
2013-08-11 21:44:00,70.0,61.0,30.05,NNW,341,0.0,0.0,74,0.00,,,0.00,weatherlink.com 1.10,2013-08-12 01:44:00,
2013-08-11 21:59:00,69.7,62.0,30.05,NNW,341,0.0,0.0,76,0.00,,,0.00,weatherlink.com 1.10,2013-08-12 01:59:00,
2013-08-11 22:14:00,69.4,62.0,30.06,NNW,341,0.0,0.0,77,0.00,,,0.00,weatherlink.com 1.10,2013-08-12 02:14:00,
2013-08-11 22:44:00,69.0,63.0,30.07,NNW,341,0.0,0.0,80,0.00,,,0.00,weatherlink.com 1.10,2013-08-12 02:44:00,
2013-08-11 22:59:00,68.8,62.0,30.07,NNW,341,0.0,0.0,80,0.00,,,0.00,weatherlink.com 1.10,2013-08-12 02:59:00,
2013-08-11 23:14:00,68.7,62.0,30.07,NNW,341,0.0,0.0,79,0.00,,,0.00,weatherlink.com 1.10,2013-08-12 03:14:00,
2013-08-11 23:29:00,68.5,61.0,30.06,SW,234,0.0,0.0,78,0.00,,,0.00,weatherlink.com 1.10,2013-08-12 03:29:00,
2013-08-11 23:44:00,68.4,61.0,30.06,SW,234,0.0,0.0,78,0.00,,,0.00,weatherlink.com 1.10,2013-08-12 03:44:00,
2013-08-11 23:59:00,68.2,60.0,30.06,SW,234,0.0,1.0,75,0.00,,,0.00,weatherlink.com 1.10,2013-08-12 03:59:00,